This is the latest recevied weather packets stored in our database for station/object OE7DRT-13. If no packets are shown the sender has not sent any weather packets the latest 10 day(s).
| Time | Temp. | Humidity | Pressure | Rain* | Wind** | Luminosity | Snow |
|---|---|---|---|---|---|---|---|
| 1778316022 | 11.11° C | 61% | 1017.9 hPa | 0 mm | - | - | - |
| 1778314835 | 10.56° C | 63% | 1018.1 hPa | 0 mm | - | - | - |
| 1778314232 | 10° C | 65% | 1018.3 hPa | 0 mm | - | - | - |
| 1778313629 | 10° C | 67% | 1018.4 hPa | 0 mm | - | - | - |
| 1778313327 | 10° C | 68% | 1018.5 hPa | 0 mm | - | - | - |
| 1778311819 | 8.89° C | 70% | 1018.4 hPa | 0 mm | - | - | - |
| 1778310974 | 8.33° C | 71% | 1018.6 hPa | 0 mm | - | - | - |
| 1778309729 | 7.78° C | 70% | 1018.6 hPa | 0 mm | - | - | - |
| 1778309426 | 7.78° C | 70% | 1018.6 hPa | 0 mm | - | - | - |
| 1778306792 | 5° C | 84% | 1018.3 hPa | 0 mm | - | - | - |
| 1778305224 | 4.44° C | 86% | 1018.4 hPa | 0 mm | - | - | - |
| 1778304942 | 4.44° C | 89% | 1018.3 hPa | 0 mm | - | - | - |
| 1778304017 | 4.44° C | 88% | 1018.5 hPa | 0 mm | - | - | - |
| 1778299231 | 5° C | 85% | 1018.1 hPa | 0 mm | - | - | - |
| 1778298327 | 5° C | 84% | 1017.8 hPa | 0 mm | - | - | - |
| 1778296819 | 5° C | 85% | 1017.9 hPa | 0 mm | - | - | - |
| 1778295330 | 5° C | 84% | 1018 hPa | 0 mm | - | - | - |
| 1778294426 | 5° C | 85% | 1018.2 hPa | 0 mm | - | - | - |
| 1778292616 | 5.56° C | 82% | 1018.2 hPa | 0 mm | - | - | - |
| 1778292033 | 6.11° C | 82% | 1018 hPa | 0 mm | - | - | - |
| 1778289619 | 6.11° C | 81% | 1017.7 hPa | 0 mm | - | - | - |
| 1778289318 | 6.11° C | 82% | 1017.7 hPa | 0 mm | - | - | - |
| 1778289016 | 6.11° C | 82% | 1017.7 hPa | 0 mm | - | - | - |
| 1778286623 | 6.67° C | 81% | 1017.7 hPa | 0 mm | - | - | - |
| 1778286361 | 6.67° C | 79% | 1017.7 hPa | 0 mm | - | - | - |
* Rain latest hour (hover to see other rain measurements)
** Current wind speed in m/s (hover to see current wind gust speed)